sensor_id;sensor_type;location;lat;lon;timestamp;pressure;altitude;pressure_sealevel;temperature;humidity
40276;BME280;25990;52.768;16.930;2024-03-29T00:01:03;99981.72;;;6.39;70.95
40276;BME280;25990;52.768;16.930;2024-03-29T00:03:26;99994.20;;;6.31;71.37
40276;BME280;25990;52.768;16.930;2024-03-29T00:05:48;100000.62;;;6.23;71.05
40276;BME280;25990;52.768;16.930;2024-03-29T00:08:10;100002.09;;;6.18;71.29
40276;BME280;25990;52.768;16.930;2024-03-29T00:10:33;100014.70;;;6.13;71.38
40276;BME280;25990;52.768;16.930;2024-03-29T00:12:55;100011.79;;;6.07;71.56
40276;BME280;25990;52.768;16.930;2024-03-29T00:15:17;100019.27;;;6.03;71.63
40276;BME280;25990;52.768;16.930;2024-03-29T00:17:39;100031.07;;;5.99;71.69
40276;BME280;25990;52.768;16.930;2024-03-29T00:20:02;100038.53;;;5.94;71.87
40276;BME280;25990;52.768;16.930;2024-03-29T00:22:24;100040.83;;;5.90;71.93
40276;BME280;25990;52.768;16.930;2024-03-29T00:24:46;100045.72;;;5.85;72.18
40276;BME280;25990;52.768;16.930;2024-03-29T00:27:08;100049.89;;;5.83;71.92
40276;BME280;25990;52.768;16.930;2024-03-29T00:29:31;100052.11;;;5.77;73.12
40276;BME280;25990;52.768;16.930;2024-03-29T00:31:53;100061.34;;;5.73;72.62
40276;BME280;25990;52.768;16.930;2024-03-29T00:34:15;100061.09;;;5.69;73.10
40276;BME280;25990;52.768;16.930;2024-03-29T00:36:38;100062.52;;;5.64;73.34
40276;BME280;25990;52.768;16.930;2024-03-29T00:39:00;100067.41;;;5.59;72.84
40276;BME280;25990;52.768;16.930;2024-03-29T00:41:22;100064.47;;;5.53;72.65
40276;BME280;25990;52.768;16.930;2024-03-29T00:43:44;100084.52;;;5.44;72.94
40276;BME280;25990;52.768;16.930;2024-03-29T00:46:07;100085.75;;;5.35;73.90
40276;BME280;25990;52.768;16.930;2024-03-29T00:48:29;100091.17;;;5.25;74.42
40276;BME280;25990;52.768;16.930;2024-03-29T00:50:54;100110.55;;;5.20;74.99
40276;BME280;25990;52.768;16.930;2024-03-29T00:53:14;100100.02;;;5.15;75.74
40276;BME280;25990;52.768;16.930;2024-03-29T00:55:36;100108.42;;;5.13;77.50
40276;BME280;25990;52.768;16.930;2024-03-29T00:57:58;100117.12;;;5.15;77.39
40276;BME280;25990;52.768;16.930;2024-03-29T01:00:21;100122.62;;;5.21;77.04
40276;BME280;25990;52.768;16.930;2024-03-29T01:02:43;100128.30;;;5.30;76.75
40276;BME280;25990;52.768;16.930;2024-03-29T01:05:06;100121.99;;;5.40;76.64
40276;BME280;25990;52.768;16.930;2024-03-29T01:07:28;100139.84;;;5.52;76.59
40276;BME280;25990;52.768;16.930;2024-03-29T01:09:50;100150.65;;;5.61;76.21
40276;BME280;25990;52.768;16.930;2024-03-29T01:12:12;100150.09;;;5.67;75.64
40276;BME280;25990;52.768;16.930;2024-03-29T01:14:35;100163.16;;;5.70;75.30
40276;BME280;25990;52.768;16.930;2024-03-29T01:16:57;100165.83;;;5.71;75.23
40276;BME280;25990;52.768;16.930;2024-03-29T01:19:19;100164.12;;;5.72;75.25
40276;BME280;25990;52.768;16.930;2024-03-29T01:21:42;100166.70;;;5.72;75.05
40276;BME280;25990;52.768;16.930;2024-03-29T01:24:04;100183.82;;;5.71;75.56
40276;BME280;25990;52.768;16.930;2024-03-29T01:26:26;100176.11;;;5.71;75.47
40276;BME280;25990;52.768;16.930;2024-03-29T01:28:49;100177.97;;;5.74;75.54
40276;BME280;25990;52.768;16.930;2024-03-29T01:31:11;100181.68;;;5.79;75.79
40276;BME280;25990;52.768;16.930;2024-03-29T01:33:33;100176.80;;;5.84;75.22
40276;BME280;25990;52.768;16.930;2024-03-29T01:35:55;100186.63;;;5.91;75.43
40276;BME280;25990;52.768;16.930;2024-03-29T01:38:17;100187.02;;;5.97;74.78
40276;BME280;25990;52.768;16.930;2024-03-29T01:40:40;100188.09;;;6.00;74.58
40276;BME280;25990;52.768;16.930;2024-03-29T01:43:02;100189.95;;;6.03;74.71
40276;BME280;25990;52.768;16.930;2024-03-29T01:45:24;100204.57;;;6.04;74.80
40276;BME280;25990;52.768;16.930;2024-03-29T01:47:47;100193.76;;;6.10;74.21
40276;BME280;25990;52.768;16.930;2024-03-29T01:50:09;100204.40;;;6.16;74.18
40276;BME280;25990;52.768;16.930;2024-03-29T01:52:31;100208.99;;;6.21;74.11
40276;BME280;25990;52.768;16.930;2024-03-29T01:54:54;100210.22;;;6.28;73.99
40276;BME280;25990;52.768;16.930;2024-03-29T01:57:16;100219.89;;;6.32;73.16
40276;BME280;25990;52.768;16.930;2024-03-29T01:59:40;100224.58;;;6.39;73.23
40276;BME280;25990;52.768;16.930;2024-03-29T02:02:00;100217.20;;;6.46;72.98
40276;BME280;25990;52.768;16.930;2024-03-29T02:04:23;100229.55;;;6.51;72.43
40276;BME280;25990;52.768;16.930;2024-03-29T02:06:45;100227.22;;;6.56;71.97
40276;BME280;25990;52.768;16.930;2024-03-29T02:09:07;100229.34;;;6.63;71.54
40276;BME280;25990;52.768;16.930;2024-03-29T02:11:29;100233.95;;;6.69;71.32
40276;BME280;25990;52.768;16.930;2024-03-29T02:13:52;100241.01;;;6.73;70.89
40276;BME280;25990;52.768;16.930;2024-03-29T02:16:14;100239.50;;;6.76;70.89
40276;BME280;25990;52.768;16.930;2024-03-29T02:18:36;100247.38;;;6.79;71.13
40276;BME280;25990;52.768;16.930;2024-03-29T02:20:58;100246.60;;;6.80;70.63
40276;BME280;25990;52.768;16.930;2024-03-29T02:23:29;100252.62;;;6.81;70.73
40276;BME280;25990;52.768;16.930;2024-03-29T02:25:44;100256.80;;;6.79;70.86
40276;BME280;25990;52.768;16.930;2024-03-29T02:28:06;100248.11;;;6.77;70.37
40276;BME280;25990;52.768;16.930;2024-03-29T02:30:28;100254.80;;;6.73;70.53
40276;BME280;25990;52.768;16.930;2024-03-29T02:32:50;100255.43;;;6.69;70.54
40276;BME280;25990;52.768;16.930;2024-03-29T02:35:15;100260.33;;;6.65;70.49
40276;BME280;25990;52.768;16.930;2024-03-29T02:37:35;100267.70;;;6.58;70.90
40276;BME280;25990;52.768;16.930;2024-03-29T02:39:57;100261.33;;;6.52;70.95
40276;BME280;25990;52.768;16.930;2024-03-29T02:42:19;100268.70;;;6.46;71.15
40276;BME280;25990;52.768;16.930;2024-03-29T02:44:42;100262.32;;;6.39;71.18
40276;BME280;25990;52.768;16.930;2024-03-29T02:47:04;100263.65;;;6.32;71.39
40276;BME280;25990;52.768;16.930;2024-03-29T02:49:26;100262.41;;;6.26;71.44
40276;BME280;25990;52.768;16.930;2024-03-29T02:51:48;100261.27;;;6.20;71.81
40276;BME280;25990;52.768;16.930;2024-03-29T02:54:11;100265.26;;;6.15;71.88
40276;BME280;25990;52.768;16.930;2024-03-29T02:56:33;100265.70;;;6.08;72.19
40276;BME280;25990;52.768;16.930;2024-03-29T02:58:55;100274.69;;;6.00;72.33
40276;BME280;25990;52.768;16.930;2024-03-29T03:01:18;100274.09;;;5.91;72.28
40276;BME280;25990;52.768;16.930;2024-03-29T03:03:40;100280.29;;;5.79;72.73
40276;BME280;25990;52.768;16.930;2024-03-29T03:06:03;100277.00;;;5.67;73.90
40276;BME280;25990;52.768;16.930;2024-03-29T03:08:26;100280.62;;;5.56;74.31
40276;BME280;25990;52.768;16.930;2024-03-29T03:10:47;100283.59;;;5.49;74.42
40276;BME280;25990;52.768;16.930;2024-03-29T03:13:09;100286.59;;;5.42;75.04
40276;BME280;25990;52.768;16.930;2024-03-29T03:15:32;100287.02;;;5.34;75.25
40276;BME280;25990;52.768;16.930;2024-03-29T03:17:54;100288.16;;;5.25;76.21
40276;BME280;25990;52.768;16.930;2024-03-29T03:20:16;100294.49;;;5.16;76.54
40276;BME280;25990;52.768;16.930;2024-03-29T03:22:38;100297.66;;;5.12;77.39
40276;BME280;25990;52.768;16.930;2024-03-29T03:25:01;100288.09;;;5.10;76.98
40276;BME280;25990;52.768;16.930;2024-03-29T03:27:23;100294.59;;;5.05;77.54
40276;BME280;25990;52.768;16.930;2024-03-29T03:29:45;100296.98;;;5.02;77.64
40276;BME280;25990;52.768;16.930;2024-03-29T03:32:08;100302.82;;;4.99;78.48
40276;BME280;25990;52.768;16.930;2024-03-29T03:34:30;100300.74;;;4.93;77.70
40276;BME280;25990;52.768;16.930;2024-03-29T03:36:52;100301.26;;;4.88;78.01
40276;BME280;25990;52.768;16.930;2024-03-29T03:39:14;100298.20;;;4.80;78.56
40276;BME280;25990;52.768;16.930;2024-03-29T03:41:36;100289.13;;;4.72;78.78
40276;BME280;25990;52.768;16.930;2024-03-29T03:43:58;100291.31;;;4.66;79.10
40276;BME280;25990;52.768;16.930;2024-03-29T03:46:20;100292.48;;;4.58;79.33
40276;BME280;25990;52.768;16.930;2024-03-29T03:48:43;100298.20;;;4.53;79.12
40276;BME280;25990;52.768;16.930;2024-03-29T03:51:05;100297.03;;;4.48;78.83
40276;BME280;25990;52.768;16.930;2024-03-29T03:53:27;100301.69;;;4.41;79.04
40276;BME280;25990;52.768;16.930;2024-03-29T03:55:49;100304.24;;;4.27;80.60
40276;BME280;25990;52.768;16.930;2024-03-29T03:58:12;100307.27;;;4.22;79.68
40276;BME280;25990;52.768;16.930;2024-03-29T04:00:33;100303.60;;;4.18;79.74
40276;BME280;25990;52.768;16.930;2024-03-29T04:02:56;100311.00;;;4.13;79.21
40276;BME280;25990;52.768;16.930;2024-03-29T04:05:19;100308.93;;;4.08;79.30
40276;BME280;25990;52.768;16.930;2024-03-29T04:07:40;100307.63;;;4.01;80.32
40276;BME280;25990;52.768;16.930;2024-03-29T04:10:03;100314.91;;;3.95;80.58
40276;BME280;25990;52.768;16.930;2024-03-29T04:12:25;100327.31;;;3.89;81.81
40276;BME280;25990;52.768;16.930;2024-03-29T04:14:47;100327.12;;;3.86;81.87
40276;BME280;25990;52.768;16.930;2024-03-29T04:17:10;100331.26;;;3.84;81.27
40276;BME280;25990;52.768;16.930;2024-03-29T04:19:32;100329.15;;;3.78;83.11
40276;BME280;25990;52.768;16.930;2024-03-29T04:21:54;100328.27;;;3.78;83.90
40276;BME280;25990;52.768;16.930;2024-03-29T04:24:17;100335.95;;;3.78;83.80
40276;BME280;25990;52.768;16.930;2024-03-29T04:26:39;100336.15;;;3.81;84.07
40276;BME280;25990;52.768;16.930;2024-03-29T04:29:01;100342.39;;;3.84;84.44
40276;BME280;25990;52.768;16.930;2024-03-29T04:31:23;100350.38;;;3.89;83.81
40276;BME280;25990;52.768;16.930;2024-03-29T04:33:45;100349.82;;;3.93;84.19
40276;BME280;25990;52.768;16.930;2024-03-29T04:36:08;100361.95;;;3.96;84.11
40276;BME280;25990;52.768;16.930;2024-03-29T04:38:30;100366.62;;;4.01;84.86
40276;BME280;25990;52.768;16.930;2024-03-29T04:40:54;100358.55;;;4.08;85.16
40276;BME280;25990;52.768;16.930;2024-03-29T04:43:14;100362.02;;;4.22;84.01
40276;BME280;25990;52.768;16.930;2024-03-29T04:45:36;100352.69;;;4.49;82.80
40276;BME280;25990;52.768;16.930;2024-03-29T04:47:58;100348.20;;;4.85;82.45
40276;BME280;25990;52.768;16.930;2024-03-29T04:50:20;100337.58;;;5.21;81.05
40276;BME280;25990;52.768;16.930;2024-03-29T04:52:42;100341.28;;;5.67;78.80
40276;BME280;25990;52.768;16.930;2024-03-29T04:55:05;100339.97;;;6.17;76.99
40276;BME280;25990;52.768;16.930;2024-03-29T04:57:27;100331.98;;;6.72;74.61
40276;BME280;25990;52.768;16.930;2024-03-29T04:59:50;100321.18;;;7.41;72.69
40276;BME280;25990;52.768;16.930;2024-03-29T05:02:12;100315.63;;;7.99;69.01
40276;BME280;25990;52.768;16.930;2024-03-29T05:04:34;100310.14;;;8.62;68.88
40276;BME280;25990;52.768;16.930;2024-03-29T05:06:57;100323.81;;;9.32;66.51
40276;BME280;25990;52.768;16.930;2024-03-29T05:09:18;100332.52;;;10.12;63.79
40276;BME280;25990;52.768;16.930;2024-03-29T05:11:40;100333.59;;;10.79;60.69
40276;BME280;25990;52.768;16.930;2024-03-29T05:14:02;100337.74;;;11.19;57.04
40276;BME280;25990;52.768;16.930;2024-03-29T05:16:24;100334.30;;;11.65;57.24
40276;BME280;25990;52.768;16.930;2024-03-29T05:18:47;100333.00;;;12.00;55.83
40276;BME280;25990;52.768;16.930;2024-03-29T05:21:09;100338.42;;;12.32;54.15
40276;BME280;25990;52.768;16.930;2024-03-29T05:23:31;100341.81;;;12.55;53.19
40276;BME280;25990;52.768;16.930;2024-03-29T05:25:53;100329.76;;;12.84;51.86
40276;BME280;25990;52.768;16.930;2024-03-29T05:28:16;100332.09;;;13.31;51.32
40276;BME280;25990;52.768;16.930;2024-03-29T05:30:38;100338.99;;;13.59;50.29
40276;BME280;25990;52.768;16.930;2024-03-29T05:33:00;100352.85;;;13.89;49.65
40276;BME280;25990;52.768;16.930;2024-03-29T05:35:23;100352.89;;;14.22;47.81
40276;BME280;25990;52.768;16.930;2024-03-29T05:37:45;100359.71;;;14.83;48.07
40276;BME280;25990;52.768;16.930;2024-03-29T05:40:08;100362.04;;;15.09;45.93
40276;BME280;25990;52.768;16.930;2024-03-29T05:42:31;100362.68;;;15.37;45.28
40276;BME280;25990;52.768;16.930;2024-03-29T05:44:52;100358.61;;;15.11;45.87
40276;BME280;25990;52.768;16.930;2024-03-29T05:47:14;100361.81;;;15.38;45.57
40276;BME280;25990;52.768;16.930;2024-03-29T05:49:36;100350.34;;;15.70;44.74
40276;BME280;25990;52.768;16.930;2024-03-29T05:51:58;100353.20;;;15.83;43.07
40276;BME280;25990;52.768;16.930;2024-03-29T05:54:20;100345.26;;;16.21;43.75
40276;BME280;25990;52.768;16.930;2024-03-29T05:56:43;100352.47;;;16.34;42.17
40276;BME280;25990;52.768;16.930;2024-03-29T05:59:05;100346.20;;;16.76;41.95
40276;BME280;25990;52.768;16.930;2024-03-29T06:01:27;100346.11;;;17.26;42.00
40276;BME280;25990;52.768;16.930;2024-03-29T06:03:50;100344.05;;;17.04;41.37
40276;BME280;25990;52.768;16.930;2024-03-29T06:06:12;100333.04;;;17.28;40.76
40276;BME280;25990;52.768;16.930;2024-03-29T06:08:34;100338.74;;;17.63;40.68
40276;BME280;25990;52.768;16.930;2024-03-29T06:10:56;100329.48;;;17.90;39.49
40276;BME280;25990;52.768;16.930;2024-03-29T06:13:19;100326.76;;;17.82;39.08
40276;BME280;25990;52.768;16.930;2024-03-29T06:15:41;100323.26;;;17.82;39.44
40276;BME280;25990;52.768;16.930;2024-03-29T06:18:06;100310.84;;;17.68;39.80
40276;BME280;25990;52.768;16.930;2024-03-29T06:20:25;100317.41;;;17.35;39.54
40276;BME280;25990;52.768;16.930;2024-03-29T06:22:48;100330.01;;;17.00;40.78
40276;BME280;25990;52.768;16.930;2024-03-29T06:25:10;100324.25;;;16.68;40.87
40276;BME280;25990;52.768;16.930;2024-03-29T06:27:36;100330.13;;;16.54;41.59
40276;BME280;25990;52.768;16.930;2024-03-29T06:29:56;100337.12;;;16.07;42.44
40276;BME280;25990;52.768;16.930;2024-03-29T06:32:17;100332.77;;;15.63;44.32
40276;BME280;25990;52.768;16.930;2024-03-29T06:34:39;100344.40;;;15.37;44.36
40276;BME280;25990;52.768;16.930;2024-03-29T06:37:02;100352.47;;;15.09;45.50
40276;BME280;25990;52.768;16.930;2024-03-29T06:39:24;100356.82;;;15.09;46.11
40276;BME280;25990;52.768;16.930;2024-03-29T06:41:46;100370.79;;;15.11;46.20
40276;BME280;25990;52.768;16.930;2024-03-29T06:44:08;100378.05;;;15.24;45.37
40276;BME280;25990;52.768;16.930;2024-03-29T06:46:30;100384.80;;;15.54;45.11
40276;BME280;25990;52.768;16.930;2024-03-29T06:48:52;100365.39;;;15.81;44.69
40276;BME280;25990;52.768;16.930;2024-03-29T06:51:15;100357.50;;;16.25;43.63
40276;BME280;25990;52.768;16.930;2024-03-29T06:53:37;100358.77;;;16.47;43.22
40276;BME280;25990;52.768;16.930;2024-03-29T06:56:02;100360.90;;;16.68;43.17
40276;BME280;25990;52.768;16.930;2024-03-29T06:58:23;100370.06;;;16.43;43.06
40276;BME280;25990;52.768;16.930;2024-03-29T07:00:46;100372.13;;;16.62;42.87
40276;BME280;25990;52.768;16.930;2024-03-29T07:03:07;100370.54;;;16.70;42.30
40276;BME280;25990;52.768;16.930;2024-03-29T07:05:28;100379.70;;;16.95;41.96
40276;BME280;25990;52.768;16.930;2024-03-29T07:07:50;100393.80;;;17.04;41.90
40276;BME280;25990;52.768;16.930;2024-03-29T07:10:13;100395.41;;;16.95;42.10
40276;BME280;25990;52.768;16.930;2024-03-29T07:12:35;100393.29;;;16.74;41.72
40276;BME280;25990;52.768;16.930;2024-03-29T07:14:57;100375.88;;;16.78;41.86
40276;BME280;25990;52.768;16.930;2024-03-29T07:17:20;100379.22;;;16.68;42.06
40276;BME280;25990;52.768;16.930;2024-03-29T07:19:42;100374.64;;;16.07;41.90
40276;BME280;25990;52.768;16.930;2024-03-29T07:22:04;100382.49;;;16.09;41.83
40276;BME280;25990;52.768;16.930;2024-03-29T07:24:26;100388.97;;;16.28;42.90
40276;BME280;25990;52.768;16.930;2024-03-29T07:26:49;100398.61;;;16.30;42.18
40276;BME280;25990;52.768;16.930;2024-03-29T07:29:14;100401.58;;;16.05;42.18
40276;BME280;25990;52.768;16.930;2024-03-29T07:31:33;100414.30;;;16.30;43.05
40276;BME280;25990;52.768;16.930;2024-03-29T07:33:56;100409.28;;;16.41;42.01
40276;BME280;25990;52.768;16.930;2024-03-29T07:36:18;100412.93;;;16.49;42.25
40276;BME280;25990;52.768;16.930;2024-03-29T07:38:40;100405.70;;;16.38;41.94
40276;BME280;25990;52.768;16.930;2024-03-29T07:41:03;100404.28;;;16.09;42.04
40276;BME280;25990;52.768;16.930;2024-03-29T07:43:25;100407.49;;;15.95;43.28
40276;BME280;25990;52.768;16.930;2024-03-29T07:45:47;100415.89;;;15.80;43.31
40276;BME280;25990;52.768;16.930;2024-03-29T07:48:14;100412.77;;;15.58;43.66
40276;BME280;25990;52.768;16.930;2024-03-29T07:50:31;100404.23;;;15.27;44.16
40276;BME280;25990;52.768;16.930;2024-03-29T07:52:54;100412.45;;;15.06;44.19
40276;BME280;25990;52.768;16.930;2024-03-29T07:55:16;100408.44;;;14.84;45.57
40276;BME280;25990;52.768;16.930;2024-03-29T07:57:38;100417.37;;;14.59;45.29
40276;BME280;25990;52.768;16.930;2024-03-29T08:00:00;100428.68;;;14.60;46.04
40276;BME280;25990;52.768;16.930;2024-03-29T08:02:23;100429.16;;;14.78;46.31
40276;BME280;25990;52.768;16.930;2024-03-29T08:04:45;100421.60;;;14.89;47.43
40276;BME280;25990;52.768;16.930;2024-03-29T08:07:07;100427.36;;;15.10;46.42
40276;BME280;25990;52.768;16.930;2024-03-29T08:09:30;100422.56;;;15.29;45.63
40276;BME280;25990;52.768;16.930;2024-03-29T08:11:52;100425.32;;;15.35;44.31
40276;BME280;25990;52.768;16.930;2024-03-29T08:14:14;100426.35;;;15.42;45.09
40276;BME280;25990;52.768;16.930;2024-03-29T08:16:36;100416.52;;;15.31;44.37
40276;BME280;25990;52.768;16.930;2024-03-29T08:18:59;100413.44;;;15.48;44.60
40276;BME280;25990;52.768;16.930;2024-03-29T08:21:21;100418.85;;;15.57;44.26
40276;BME280;25990;52.768;16.930;2024-03-29T08:23:43;100416.28;;;15.59;43.68
40276;BME280;25990;52.768;16.930;2024-03-29T08:26:06;100414.50;;;15.58;43.75
40276;BME280;25990;52.768;16.930;2024-03-29T08:28:28;100423.32;;;15.63;44.28
40276;BME280;25990;52.768;16.930;2024-03-29T08:31:03;100423.63;;;15.75;43.58
40276;BME280;25990;52.768;16.930;2024-03-29T08:33:12;100436.02;;;15.84;43.08
40276;BME280;25990;52.768;16.930;2024-03-29T08:35:35;100446.66;;;15.93;43.71
40276;BME280;25990;52.768;16.930;2024-03-29T08:37:57;100448.45;;;15.94;43.29
40276;BME280;25990;52.768;16.930;2024-03-29T08:40:19;100459.61;;;15.87;42.60
40276;BME280;25990;52.768;16.930;2024-03-29T08:42:41;100463.14;;;15.89;42.93
40276;BME280;25990;52.768;16.930;2024-03-29T08:45:04;100461.39;;;15.89;43.03
40276;BME280;25990;52.768;16.930;2024-03-29T08:47:26;100462.02;;;15.78;43.13
40276;BME280;25990;52.768;16.930;2024-03-29T08:49:48;100467.34;;;15.82;42.59
40276;BME280;25990;52.768;16.930;2024-03-29T08:53:04;100465.74;;;15.87;43.45
40276;BME280;25990;52.768;16.930;2024-03-29T08:55:23;100453.20;;;15.72;41.95
40276;BME280;25990;52.768;16.930;2024-03-29T08:57:45;100458.78;;;15.89;42.50
40276;BME280;25990;52.768;16.930;2024-03-29T09:00:08;100451.99;;;15.98;42.58
40276;BME280;25990;52.768;16.930;2024-03-29T09:02:30;100453.88;;;16.05;43.14
40276;BME280;25990;52.768;16.930;2024-03-29T09:04:52;100458.59;;;16.21;43.33
40276;BME280;25990;52.768;16.930;2024-03-29T09:07:15;100459.60;;;16.28;43.65
40276;BME280;25990;52.768;16.930;2024-03-29T09:09:37;100461.48;;;16.35;43.90
40276;BME280;25990;52.768;16.930;2024-03-29T09:11:59;100468.14;;;16.19;43.34
40276;BME280;25990;52.768;16.930;2024-03-29T09:14:21;100472.17;;;16.05;43.44
40276;BME280;25990;52.768;16.930;2024-03-29T09:16:44;100473.73;;;15.95;45.00
40276;BME280;25990;52.768;16.930;2024-03-29T09:19:09;100472.95;;;15.99;43.91
40276;BME280;25990;52.768;16.930;2024-03-29T09:21:28;100472.03;;;15.97;44.18
40276;BME280;25990;52.768;16.930;2024-03-29T09:23:50;100483.45;;;16.01;42.89
40276;BME280;25990;52.768;16.930;2024-03-29T09:26:13;100487.04;;;16.06;42.31
40276;BME280;25990;52.768;16.930;2024-03-29T09:28:35;100491.59;;;16.14;43.25
40276;BME280;25990;52.768;16.930;2024-03-29T09:30:58;100483.69;;;16.13;43.09
40276;BME280;25990;52.768;16.930;2024-03-29T09:33:19;100471.40;;;16.09;41.83
40276;BME280;25990;52.768;16.930;2024-03-29T09:35:42;100469.66;;;16.09;42.18
40276;BME280;25990;52.768;16.930;2024-03-29T09:38:04;100472.17;;;16.05;42.36
40276;BME280;25990;52.768;16.930;2024-03-29T09:40:26;100470.80;;;16.21;43.91
40276;BME280;25990;52.768;16.930;2024-03-29T09:42:49;100474.51;;;16.32;45.37
40276;BME280;25990;52.768;16.930;2024-03-29T09:45:11;100480.95;;;16.49;43.75
40276;BME280;25990;52.768;16.930;2024-03-29T09:47:33;100482.71;;;16.50;42.76
40276;BME280;25990;52.768;16.930;2024-03-29T09:49:56;100484.41;;;16.48;43.54
40276;BME280;25990;52.768;16.930;2024-03-29T09:52:18;100469.02;;;16.20;41.16
40276;BME280;25990;52.768;16.930;2024-03-29T09:54:39;100464.55;;;16.16;41.08
40276;BME280;25990;52.768;16.930;2024-03-29T09:57:01;100470.49;;;16.07;42.88
40276;BME280;25990;52.768;16.930;2024-03-29T09:59:24;100471.45;;;16.10;43.34
40276;BME280;25990;52.768;16.930;2024-03-29T10:01:48;100464.61;;;16.17;41.94
40276;BME280;25990;52.768;16.930;2024-03-29T10:04:09;100453.14;;;16.10;41.33
40276;BME280;25990;52.768;16.930;2024-03-29T10:06:34;100440.89;;;16.09;41.59
40276;BME280;25990;52.768;16.930;2024-03-29T10:08:53;100454.23;;;16.22;42.10
40276;BME280;25990;52.768;16.930;2024-03-29T10:11:25;100445.24;;;16.07;42.13
40276;BME280;25990;52.768;16.930;2024-03-29T10:13:37;100466.21;;;16.10;41.63
40276;BME280;25990;52.768;16.930;2024-03-29T10:15:59;100478.42;;;16.11;42.15
40276;BME280;25990;52.768;16.930;2024-03-29T10:18:26;100474.15;;;16.15;42.97
40276;BME280;25990;52.768;16.930;2024-03-29T10:20:44;100477.03;;;16.27;42.61
40276;BME280;25990;52.768;16.930;2024-03-29T10:23:06;100470.20;;;16.35;42.89
40276;BME280;25990;52.768;16.930;2024-03-29T10:25:32;100462.48;;;16.42;41.18
40276;BME280;25990;52.768;16.930;2024-03-29T10:27:51;100465.14;;;16.45;39.46
40276;BME280;25990;52.768;16.930;2024-03-29T10:30:13;100459.73;;;16.34;39.75
40276;BME280;25990;52.768;16.930;2024-03-29T10:32:39;100459.73;;;16.35;41.49
40276;BME280;25990;52.768;16.930;2024-03-29T10:34:57;100464.88;;;16.31;39.69
40276;BME280;25990;52.768;16.930;2024-03-29T10:37:20;100458.86;;;16.35;40.04
40276;BME280;25990;52.768;16.930;2024-03-29T10:39:43;100457.94;;;16.33;38.49
40276;BME280;25990;52.768;16.930;2024-03-29T10:42:05;100458.82;;;16.32;38.88
40276;BME280;25990;52.768;16.930;2024-03-29T10:44:28;100460.56;;;16.33;38.82
40276;BME280;25990;52.768;16.930;2024-03-29T10:46:50;100452.66;;;16.30;37.27
40276;BME280;25990;52.768;16.930;2024-03-29T10:49:11;100456.10;;;16.27;37.35
40276;BME280;25990;52.768;16.930;2024-03-29T10:51:33;100452.62;;;16.28;37.55
40276;BME280;25990;52.768;16.930;2024-03-29T10:53:56;100449.34;;;16.39;39.11
40276;BME280;25990;52.768;16.930;2024-03-29T10:56:17;100461.64;;;16.43;36.78
40276;BME280;25990;52.768;16.930;2024-03-29T10:58:40;100452.18;;;16.51;38.15
40276;BME280;25990;52.768;16.930;2024-03-29T11:01:04;100455.09;;;16.66;36.88
40276;BME280;25990;52.768;16.930;2024-03-29T11:05:50;100457.41;;;16.96;37.77
40276;BME280;25990;52.768;16.930;2024-03-29T11:08:09;100461.09;;;17.08;36.88
40276;BME280;25990;52.768;16.930;2024-03-29T11:13:06;100450.91;;;17.25;36.99
40276;BME280;25990;52.768;16.930;2024-03-29T11:15:26;100444.05;;;17.34;35.74
40276;BME280;25990;52.768;16.930;2024-03-29T11:17:37;100452.91;;;17.44;36.25
40276;BME280;25990;52.768;16.930;2024-03-29T11:19:59;100448.82;;;17.60;37.38
40276;BME280;25990;52.768;16.930;2024-03-29T11:22:21;100453.31;;;17.70;38.34
40276;BME280;25990;52.768;16.930;2024-03-29T11:24:43;100448.03;;;17.69;36.89
40276;BME280;25990;52.768;16.930;2024-03-29T11:27:09;100454.21;;;17.72;38.11
40276;BME280;25990;52.768;16.930;2024-03-29T11:29:27;100445.69;;;17.86;37.48
40276;BME280;25990;52.768;16.930;2024-03-29T11:31:58;100450.99;;;17.90;37.75
40276;BME280;25990;52.768;16.930;2024-03-29T11:34:11;100442.34;;;17.96;35.44
40276;BME280;25990;52.768;16.930;2024-03-29T11:36:33;100438.76;;;17.91;36.30
40276;BME280;25990;52.768;16.930;2024-03-29T11:38:57;100435.23;;;17.89;36.83
40276;BME280;25990;52.768;16.930;2024-03-29T11:41:24;100435.18;;;17.83;36.95
40276;BME280;25990;52.768;16.930;2024-03-29T11:43:41;100446.35;;;17.72;36.38
40276;BME280;25990;52.768;16.930;2024-03-29T11:46:07;100440.86;;;17.54;37.17
40276;BME280;25990;52.768;16.930;2024-03-29T11:48:26;100443.57;;;17.62;36.61
40276;BME280;25990;52.768;16.930;2024-03-29T11:50:48;100437.29;;;17.50;36.16
40276;BME280;25990;52.768;16.930;2024-03-29T11:53:10;100438.17;;;17.51;36.70
40276;BME280;25990;52.768;16.930;2024-03-29T11:55:32;100439.98;;;17.53;37.08
40276;BME280;25990;52.768;16.930;2024-03-29T11:57:54;100436.55;;;17.59;36.67
40276;BME280;25990;52.768;16.930;2024-03-29T12:00:17;100447.91;;;17.59;37.87
40276;BME280;25990;52.768;16.930;2024-03-29T12:02:39;100439.78;;;17.41;36.39
40276;BME280;25990;52.768;16.930;2024-03-29T12:05:06;100440.55;;;17.34;38.25
40276;BME280;25990;52.768;16.930;2024-03-29T12:07:23;100435.98;;;17.21;37.31
40276;BME280;25990;52.768;16.930;2024-03-29T12:09:46;100435.95;;;17.19;39.82
40276;BME280;25990;52.768;16.930;2024-03-29T12:12:08;100424.59;;;17.19;39.20
40276;BME280;25990;52.768;16.930;2024-03-29T12:14:31;100428.16;;;17.24;39.34
40276;BME280;25990;52.768;16.930;2024-03-29T12:16:52;100422.92;;;17.24;37.65
40276;BME280;25990;52.768;16.930;2024-03-29T12:19:24;100422.98;;;17.28;37.97
40276;BME280;25990;52.768;16.930;2024-03-29T12:21:37;100422.09;;;17.26;36.51
40276;BME280;25990;52.768;16.930;2024-03-29T12:23:59;100414.96;;;17.17;37.68